sensor_id;sensor_type;location;lat;lon;timestamp;pressure;altitude;pressure_sealevel;temperature;humidity
11415;BME280;5763;42.714;23.244;2023-04-01T00:01:10;93693.16;;;14.89;44.91
11415;BME280;5763;42.714;23.244;2023-04-01T00:03:39;93711.22;;;14.84;47.29
11415;BME280;5763;42.714;23.244;2023-04-01T00:06:06;93708.97;;;14.77;48.38
11415;BME280;5763;42.714;23.244;2023-04-01T00:08:33;93701.19;;;14.59;49.16
11415;BME280;5763;42.714;23.244;2023-04-01T00:10:59;93705.16;;;14.53;49.25
11415;BME280;5763;42.714;23.244;2023-04-01T00:13:26;93711.41;;;14.37;49.74
11415;BME280;5763;42.714;23.244;2023-04-01T00:15:53;93690.81;;;14.16;50.05
11415;BME280;5763;42.714;23.244;2023-04-01T00:18:21;93693.53;;;14.10;50.24
11415;BME280;5763;42.714;23.244;2023-04-01T00:20:50;93700.28;;;14.09;50.18
11415;BME280;5763;42.714;23.244;2023-04-01T00:23:18;93689.03;;;14.07;49.60
11415;BME280;5763;42.714;23.244;2023-04-01T00:25:46;93699.84;;;14.22;50.08
11415;BME280;5763;42.714;23.244;2023-04-01T00:28:14;93689.06;;;14.18;50.23
11415;BME280;5763;42.714;23.244;2023-04-01T00:30:41;93694.56;;;14.18;51.01
11415;BME280;5763;42.714;23.244;2023-04-01T00:33:07;93691.56;;;14.16;51.28
11415;BME280;5763;42.714;23.244;2023-04-01T00:35:35;93688.31;;;14.18;51.20
11415;BME280;5763;42.714;23.244;2023-04-01T00:38:02;93689.81;;;14.13;51.46
11415;BME280;5763;42.714;23.244;2023-04-01T00:40:31;93683.75;;;13.98;51.23
11415;BME280;5763;42.714;23.244;2023-04-01T00:42:59;93669.50;;;13.94;51.02
11415;BME280;5763;42.714;23.244;2023-04-01T00:45:32;93672.47;;;13.91;50.87
11415;BME280;5763;42.714;23.244;2023-04-01T00:48:02;93654.47;;;13.84;51.37
11415;BME280;5763;42.714;23.244;2023-04-01T00:50:31;93652.22;;;13.88;51.19
11415;BME280;5763;42.714;23.244;2023-04-01T00:53:01;93655.72;;;13.78;51.45
11415;BME280;5763;42.714;23.244;2023-04-01T00:55:31;93655.69;;;13.72;51.44
11415;BME280;5763;42.714;23.244;2023-04-01T00:58:00;93647.22;;;13.81;51.43
11415;BME280;5763;42.714;23.244;2023-04-01T01:00:28;93641.19;;;13.77;51.31
11415;BME280;5763;42.714;23.244;2023-04-01T01:02:54;93640.47;;;13.82;51.28
11415;BME280;5763;42.714;23.244;2023-04-01T01:05:26;93641.16;;;13.72;51.47
11415;BME280;5763;42.714;23.244;2023-04-01T01:08:03;93626.38;;;13.58;51.61
11415;BME280;5763;42.714;23.244;2023-04-01T01:10:37;93634.63;;;13.58;52.27
11415;BME280;5763;42.714;23.244;2023-04-01T01:13:10;93620.59;;;13.51;52.45
11415;BME280;5763;42.714;23.244;2023-04-01T01:15:46;93624.59;;;13.44;53.23
11415;BME280;5763;42.714;23.244;2023-04-01T01:18:19;93622.81;;;13.41;53.19
11415;BME280;5763;42.714;23.244;2023-04-01T01:24:13;93614.06;;;13.37;53.47
11415;BME280;5763;42.714;23.244;2023-04-01T01:26:56;93598.78;;;13.31;53.55
11415;BME280;5763;42.714;23.244;2023-04-01T01:33:01;93624.53;;;13.33;53.47
11415;BME280;5763;42.714;23.244;2023-04-01T01:35:35;93605.28;;;13.33;53.09
11415;BME280;5763;42.714;23.244;2023-04-01T01:38:07;93604.53;;;13.27;53.33
11415;BME280;5763;42.714;23.244;2023-04-01T01:40:36;93601.72;;;13.16;54.01
11415;BME280;5763;42.714;23.244;2023-04-01T01:43:08;93605.00;;;13.26;53.47
11415;BME280;5763;42.714;23.244;2023-04-01T01:45:39;93600.59;;;13.39;52.95
11415;BME280;5763;42.714;23.244;2023-04-01T01:48:08;93606.09;;;13.39;53.08
11415;BME280;5763;42.714;23.244;2023-04-01T01:50:37;93599.09;;;13.44;53.45
11415;BME280;5763;42.714;23.244;2023-04-01T01:53:07;93602.34;;;13.37;53.75
11415;BME280;5763;42.714;23.244;2023-04-01T01:55:35;93564.78;;;13.17;53.23
11415;BME280;5763;42.714;23.244;2023-04-01T01:58:07;93600.31;;;13.37;53.11
11415;BME280;5763;42.714;23.244;2023-04-01T02:00:36;93587.09;;;13.41;53.33
11415;BME280;5763;42.714;23.244;2023-04-01T02:03:04;93599.88;;;13.44;53.38
11415;BME280;5763;42.714;23.244;2023-04-01T02:05:32;93588.34;;;13.46;53.47
11415;BME280;5763;42.714;23.244;2023-04-01T02:08:05;93585.84;;;13.42;53.95
11415;BME280;5763;42.714;23.244;2023-04-01T02:10:36;93578.84;;;13.41;53.79
11415;BME280;5763;42.714;23.244;2023-04-01T02:13:08;93581.88;;;13.49;53.33
11415;BME280;5763;42.714;23.244;2023-04-01T02:15:41;93582.09;;;13.40;53.85
11415;BME280;5763;42.714;23.244;2023-04-01T02:18:09;93568.34;;;13.40;53.26
11415;BME280;5763;42.714;23.244;2023-04-01T02:20:38;93572.13;;;13.42;53.13
11415;BME280;5763;42.714;23.244;2023-04-01T02:23:09;93557.63;;;13.42;53.18
11415;BME280;5763;42.714;23.244;2023-04-01T02:25:37;93572.84;;;13.37;52.08
11415;BME280;5763;42.714;23.244;2023-04-01T02:28:05;93561.84;;;13.37;52.23
11415;BME280;5763;42.714;23.244;2023-04-01T02:30:35;93589.63;;;13.50;51.89
11415;BME280;5763;42.714;23.244;2023-04-01T02:33:04;93575.38;;;13.46;51.94
11415;BME280;5763;42.714;23.244;2023-04-01T02:35:33;93576.91;;;13.53;51.65
11415;BME280;5763;42.714;23.244;2023-04-01T02:38:00;93585.66;;;13.57;51.78
11415;BME280;5763;42.714;23.244;2023-04-01T02:40:29;93579.66;;;13.53;52.14
11415;BME280;5763;42.714;23.244;2023-04-01T02:42:55;93605.16;;;13.59;52.50
11415;BME280;5763;42.714;23.244;2023-04-01T02:45:22;93590.16;;;13.60;52.27
11415;BME280;5763;42.714;23.244;2023-04-01T02:47:49;93600.88;;;13.52;53.02
11415;BME280;5763;42.714;23.244;2023-04-01T02:50:16;93601.16;;;13.60;51.94
11415;BME280;5763;42.714;23.244;2023-04-01T02:52:42;93595.38;;;13.52;52.37
11415;BME280;5763;42.714;23.244;2023-04-01T02:55:09;93598.13;;;13.47;52.48
11415;BME280;5763;42.714;23.244;2023-04-01T02:57:37;93609.84;;;13.47;52.72
11415;BME280;5763;42.714;23.244;2023-04-01T03:00:05;93599.06;;;13.38;53.45
11415;BME280;5763;42.714;23.244;2023-04-01T03:02:37;93614.91;;;13.54;52.98
11415;BME280;5763;42.714;23.244;2023-04-01T03:05:04;93614.13;;;13.54;53.24
11415;BME280;5763;42.714;23.244;2023-04-01T03:07:32;93620.41;;;13.54;53.58
11415;BME280;5763;42.714;23.244;2023-04-01T03:09:59;93619.09;;;13.44;54.28
11415;BME280;5763;42.714;23.244;2023-04-01T03:12:25;93621.56;;;13.37;54.68
11415;BME280;5763;42.714;23.244;2023-04-01T03:14:54;93620.75;;;13.25;54.94
11415;BME280;5763;42.714;23.244;2023-04-01T03:17:20;93625.50;;;13.25;55.01
11415;BME280;5763;42.714;23.244;2023-04-01T03:19:47;93627.94;;;13.17;55.33
11415;BME280;5763;42.714;23.244;2023-04-01T03:22:14;93619.66;;;13.06;55.65
11415;BME280;5763;42.714;23.244;2023-04-01T03:24:41;93617.94;;;13.09;55.52
11415;BME280;5763;42.714;23.244;2023-04-01T03:27:07;93628.44;;;13.10;55.95
11415;BME280;5763;42.714;23.244;2023-04-01T03:29:34;93617.97;;;13.20;49.52
11415;BME280;5763;42.714;23.244;2023-04-01T03:32:02;93618.53;;;13.35;49.23
11415;BME280;5763;42.714;23.244;2023-04-01T03:34:29;93614.09;;;13.43;50.04
11415;BME280;5763;42.714;23.244;2023-04-01T03:36:56;93596.38;;;13.49;50.65
11415;BME280;5763;42.714;23.244;2023-04-01T03:39:23;93587.91;;;13.53;50.85
11415;BME280;5763;42.714;23.244;2023-04-01T03:41:50;93569.69;;;13.66;51.06
11415;BME280;5763;42.714;23.244;2023-04-01T03:44:17;93547.22;;;13.68;50.98
11415;BME280;5763;42.714;23.244;2023-04-01T03:46:44;93545.22;;;13.79;51.60
11415;BME280;5763;42.714;23.244;2023-04-01T03:49:12;93550.75;;;13.90;51.21
11415;BME280;5763;42.714;23.244;2023-04-01T03:51:40;93542.50;;;13.90;50.91
11415;BME280;5763;42.714;23.244;2023-04-01T03:54:07;93521.75;;;14.00;51.38
11415;BME280;5763;42.714;23.244;2023-04-01T03:56:34;93516.50;;;14.08;53.39
11415;BME280;5763;42.714;23.244;2023-04-01T03:59:03;93505.22;;;14.06;53.82
11415;BME280;5763;42.714;23.244;2023-04-01T04:01:30;93499.47;;;14.09;54.93
11415;BME280;5763;42.714;23.244;2023-04-01T04:03:57;93510.50;;;14.04;55.97
11415;BME280;5763;42.714;23.244;2023-04-01T04:06:26;93508.50;;;13.99;55.35
11415;BME280;5763;42.714;23.244;2023-04-01T04:08:53;93505.00;;;13.93;54.90
11415;BME280;5763;42.714;23.244;2023-04-01T04:11:22;93498.00;;;13.86;54.81
11415;BME280;5763;42.714;23.244;2023-04-01T04:13:49;93501.97;;;13.80;55.47
11415;BME280;5763;42.714;23.244;2023-04-01T04:16:17;93504.22;;;13.81;55.42
11415;BME280;5763;42.714;23.244;2023-04-01T04:18:44;93485.72;;;13.71;54.98
11415;BME280;5763;42.714;23.244;2023-04-01T04:21:12;93485.97;;;13.56;55.01
11415;BME280;5763;42.714;23.244;2023-04-01T04:23:40;93489.69;;;13.42;55.83
11415;BME280;5763;42.714;23.244;2023-04-01T04:26:09;93486.94;;;13.53;55.74
11415;BME280;5763;42.714;23.244;2023-04-01T04:28:39;93479.44;;;13.43;56.79
11415;BME280;5763;42.714;23.244;2023-04-01T04:31:06;93481.94;;;13.46;56.14
11415;BME280;5763;42.714;23.244;2023-04-01T04:33:33;93472.97;;;13.51;55.63
11415;BME280;5763;42.714;23.244;2023-04-01T04:36:01;93464.72;;;13.51;56.12
11415;BME280;5763;42.714;23.244;2023-04-01T04:38:27;93471.19;;;13.48;55.69
11415;BME280;5763;42.714;23.244;2023-04-01T04:40:56;93448.19;;;13.24;55.31
11415;BME280;5763;42.714;23.244;2023-04-01T04:43:22;93455.44;;;13.32;55.08
11415;BME280;5763;42.714;23.244;2023-04-01T04:45:49;93465.69;;;13.32;55.33
11415;BME280;5763;42.714;23.244;2023-04-01T04:48:17;93429.97;;;13.26;55.38
11415;BME280;5763;42.714;23.244;2023-04-01T04:50:46;93460.19;;;13.32;55.09
11415;BME280;5763;42.714;23.244;2023-04-01T04:53:15;93446.94;;;13.30;55.21
11415;BME280;5763;42.714;23.244;2023-04-01T04:55:45;93444.47;;;13.27;54.86
11415;BME280;5763;42.714;23.244;2023-04-01T04:58:14;93425.69;;;13.20;55.00
11415;BME280;5763;42.714;23.244;2023-04-01T05:00:41;93441.44;;;13.19;55.60
11415;BME280;5763;42.714;23.244;2023-04-01T05:03:08;93443.44;;;13.13;55.45
11415;BME280;5763;42.714;23.244;2023-04-01T05:05:35;93431.94;;;13.15;55.12
11415;BME280;5763;42.714;23.244;2023-04-01T05:08:02;93424.69;;;13.17;55.15
11415;BME280;5763;42.714;23.244;2023-04-01T05:10:29;93421.72;;;13.26;55.38
11415;BME280;5763;42.714;23.244;2023-04-01T05:12:57;93402.97;;;13.25;55.23
11415;BME280;5763;42.714;23.244;2023-04-01T05:15:25;93412.97;;;13.22;55.33
11415;BME280;5763;42.714;23.244;2023-04-01T05:17:52;93401.50;;;13.18;55.01
11415;BME280;5763;42.714;23.244;2023-04-01T05:20:19;93407.72;;;13.08;54.54
11415;BME280;5763;42.714;23.244;2023-04-01T05:22:45;93394.47;;;13.06;54.45
11415;BME280;5763;42.714;23.244;2023-04-01T05:25:12;93396.22;;;13.04;54.15
11415;BME280;5763;42.714;23.244;2023-04-01T05:27:39;93408.94;;;13.01;54.04
11415;BME280;5763;42.714;23.244;2023-04-01T05:30:06;93401.44;;;13.07;54.08
11415;BME280;5763;42.714;23.244;2023-04-01T05:32:35;93413.97;;;13.19;54.04
11415;BME280;5763;42.714;23.244;2023-04-01T05:35:02;93406.72;;;13.16;53.65
11415;BME280;5763;42.714;23.244;2023-04-01T05:37:29;93404.22;;;13.13;53.51
11415;BME280;5763;42.714;23.244;2023-04-01T05:39:56;93406.72;;;13.16;53.33
11415;BME280;5763;42.714;23.244;2023-04-01T05:42:24;93405.72;;;13.25;53.21
11415;BME280;5763;42.714;23.244;2023-04-01T05:44:50;93392.75;;;13.25;53.47
11415;BME280;5763;42.714;23.244;2023-04-01T05:47:17;93384.75;;;13.38;53.84
11415;BME280;5763;42.714;23.244;2023-04-01T05:49:45;93376.53;;;13.49;52.98
11415;BME280;5763;42.714;23.244;2023-04-01T05:52:12;93381.53;;;13.62;53.03
11415;BME280;5763;42.714;23.244;2023-04-01T05:54:39;93375.03;;;13.70;52.63
11415;BME280;5763;42.714;23.244;2023-04-01T05:57:05;93381.97;;;13.99;51.81
11415;BME280;5763;42.714;23.244;2023-04-01T05:59:32;93391.69;;;14.11;51.80
11415;BME280;5763;42.714;23.244;2023-04-01T06:02:00;93392.47;;;14.22;51.52
11415;BME280;5763;42.714;23.244;2023-04-01T06:04:32;93364.63;;;14.42;51.12
11415;BME280;5763;42.714;23.244;2023-04-01T06:07:08;93368.25;;;14.72;50.81
11415;BME280;5763;42.714;23.244;2023-04-01T06:09:37;93372.22;;;14.82;50.78
11415;BME280;5763;42.714;23.244;2023-04-01T06:12:29;93372.06;;;15.04;50.08
11415;BME280;5763;42.714;23.244;2023-04-01T06:15:10;93376.03;;;15.09;50.29
11415;BME280;5763;42.714;23.244;2023-04-01T06:17:48;93374.00;;;15.15;50.63
11415;BME280;5763;42.714;23.244;2023-04-01T06:20:24;93368.75;;;15.11;50.31
11415;BME280;5763;42.714;23.244;2023-04-01T06:23:10;93381.28;;;15.12;49.55
11415;BME280;5763;42.714;23.244;2023-04-01T06:25:58;93377.03;;;15.11;49.51
11415;BME280;5763;42.714;23.244;2023-04-01T06:29:16;93374.34;;;15.00;49.37
11415;BME280;5763;42.714;23.244;2023-04-01T06:32:25;93368.81;;;15.06;49.54
11415;BME280;5763;42.714;23.244;2023-04-01T06:38:14;93367.97;;;15.16;48.88
11415;BME280;5763;42.714;23.244;2023-04-01T06:41:07;93320.50;;;14.99;48.75
11415;BME280;5763;42.714;23.244;2023-04-01T06:43:47;93363.50;;;15.13;48.38
11415;BME280;5763;42.714;23.244;2023-04-01T06:46:20;93353.47;;;15.16;48.09
11415;BME280;5763;42.714;23.244;2023-04-01T06:49:02;93345.41;;;15.23;47.66
11415;BME280;5763;42.714;23.244;2023-04-01T06:51:39;93332.88;;;15.22;47.56
11415;BME280;5763;42.714;23.244;2023-04-01T06:54:12;93326.66;;;15.16;47.90
11415;BME280;5763;42.714;23.244;2023-04-01T06:56:42;93321.06;;;15.27;47.23
11415;BME280;5763;42.714;23.244;2023-04-01T06:59:15;93332.13;;;15.22;47.54
11415;BME280;5763;42.714;23.244;2023-04-01T07:01:45;93339.63;;;15.21;47.49
11415;BME280;5763;42.714;23.244;2023-04-01T07:04:15;93356.88;;;15.27;47.32
11415;BME280;5763;42.714;23.244;2023-04-01T07:06:48;93348.59;;;15.33;47.13
11415;BME280;5763;42.714;23.244;2023-04-01T07:09:21;93336.69;;;15.49;47.75
11415;BME280;5763;42.714;23.244;2023-04-01T07:11:53;93325.16;;;15.50;47.31
11415;BME280;5763;42.714;23.244;2023-04-01T07:14:24;93331.38;;;15.56;46.57
11415;BME280;5763;42.714;23.244;2023-04-01T07:16:56;93338.06;;;15.66;46.40
11415;BME280;5763;42.714;23.244;2023-04-01T07:19:30;93349.66;;;15.59;46.48
11415;BME280;5763;42.714;23.244;2023-04-01T07:22:01;93331.00;;;15.41;47.44
11415;BME280;5763;42.714;23.244;2023-04-01T07:24:34;93330.72;;;15.45;47.21
11415;BME280;5763;42.714;23.244;2023-04-01T07:27:01;93332.94;;;15.52;46.85
11415;BME280;5763;42.714;23.244;2023-04-01T07:29:27;93324.97;;;15.43;46.84
11415;BME280;5763;42.714;23.244;2023-04-01T07:32:07;93339.66;;;15.56;47.15
11415;BME280;5763;42.714;23.244;2023-04-01T07:34:42;93331.16;;;15.54;47.33
11415;BME280;5763;42.714;23.244;2023-04-01T07:37:16;93341.09;;;15.63;47.56
11415;BME280;5763;42.714;23.244;2023-04-01T07:39:53;93336.56;;;15.65;47.21
11415;BME280;5763;42.714;23.244;2023-04-01T07:42:31;93332.34;;;15.59;47.38
11415;BME280;5763;42.714;23.244;2023-04-01T07:45:11;93337.03;;;15.69;47.03
11415;BME280;5763;42.714;23.244;2023-04-01T07:47:52;93329.38;;;15.57;47.51
11415;BME280;5763;42.714;23.244;2023-04-01T07:50:26;93324.59;;;15.57;47.82
11415;BME280;5763;42.714;23.244;2023-04-01T07:53:02;93331.84;;;15.60;48.21
11415;BME280;5763;42.714;23.244;2023-04-01T07:55:42;93339.38;;;15.60;48.16
11415;BME280;5763;42.714;23.244;2023-04-01T07:58:16;93310.91;;;15.46;47.64
11415;BME280;5763;42.714;23.244;2023-04-01T08:00:51;93330.00;;;15.39;48.51
11415;BME280;5763;42.714;23.244;2023-04-01T08:03:45;93282.63;;;15.11;48.71
11415;BME280;5763;42.714;23.244;2023-04-01T08:06:20;93314.28;;;15.34;48.36
11415;BME280;5763;42.714;23.244;2023-04-01T08:08:56;93309.53;;;15.29;49.32
11415;BME280;5763;42.714;23.244;2023-04-01T08:11:39;93301.25;;;15.34;49.57
11415;BME280;5763;42.714;23.244;2023-04-01T08:14:12;93291.22;;;15.31;49.77
11415;BME280;5763;42.714;23.244;2023-04-01T08:16:47;93278.69;;;15.30;49.49
11415;BME280;5763;42.714;23.244;2023-04-01T08:19:29;93270.25;;;15.23;49.72
11415;BME280;5763;42.714;23.244;2023-04-01T08:22:02;93280.59;;;15.46;49.17
11415;BME280;5763;42.714;23.244;2023-04-01T08:24:34;93271.28;;;15.49;49.52
11415;BME280;5763;42.714;23.244;2023-04-01T08:27:11;93279.16;;;15.64;49.53
11415;BME280;5763;42.714;23.244;2023-04-01T08:29:44;93274.16;;;15.86;49.75
11415;BME280;5763;42.714;23.244;2023-04-01T08:32:15;93258.28;;;16.16;49.03
11415;BME280;5763;42.714;23.244;2023-04-01T08:34:48;93253.06;;;16.31;48.91
11415;BME280;5763;42.714;23.244;2023-04-01T08:37:20;93234.66;;;16.58;48.72
11415;BME280;5763;42.714;23.244;2023-04-01T08:39:50;93234.09;;;16.96;48.23
11415;BME280;5763;42.714;23.244;2023-04-01T08:42:31;93223.03;;;17.28;48.66
11415;BME280;5763;42.714;23.244;2023-04-01T08:45:28;93215.16;;;17.77;47.22
11415;BME280;5763;42.714;23.244;2023-04-01T08:51:21;93198.91;;;18.79;44.05
11415;BME280;5763;42.714;23.244;2023-04-01T08:54:14;93195.03;;;19.16;42.54
11415;BME280;5763;42.714;23.244;2023-04-01T08:56:53;93202.06;;;19.58;41.89
11415;BME280;5763;42.714;23.244;2023-04-01T08:59:41;93206.34;;;19.59;39.26
11415;BME280;5763;42.714;23.244;2023-04-01T09:02:40;93177.53;;;19.00;38.92
11415;BME280;5763;42.714;23.244;2023-04-01T09:05:38;93188.56;;;18.59;36.57
11415;BME280;5763;42.714;23.244;2023-04-01T09:08:21;93222.88;;;18.56;36.45
11415;BME280;5763;42.714;23.244;2023-04-01T09:10:59;93214.16;;;18.26;37.15
11415;BME280;5763;42.714;23.244;2023-04-01T09:13:43;93206.19;;;18.09;36.78
11415;BME280;5763;42.714;23.244;2023-04-01T09:16:24;93209.50;;;18.08;38.09
11415;BME280;5763;42.714;23.244;2023-04-01T09:19:11;93209.09;;;18.04;38.48
11415;BME280;5763;42.714;23.244;2023-04-01T09:22:04;93215.59;;;17.81;39.00
11415;BME280;5763;42.714;23.244;2023-04-01T09:24:51;93201.19;;;17.69;38.80
11415;BME280;5763;42.714;23.244;2023-04-01T09:27:27;93190.22;;;17.63;39.00
11415;BME280;5763;42.714;23.244;2023-04-01T09:33:19;93175.34;;;17.67;39.51
11415;BME280;5763;42.714;23.244;2023-04-01T09:36:01;93182.38;;;17.67;39.32
11415;BME280;5763;42.714;23.244;2023-04-01T09:38:30;93170.00;;;17.68;38.70
11415;BME280;5763;42.714;23.244;2023-04-01T09:41:07;93151.19;;;17.80;37.71
11415;BME280;5763;42.714;23.244;2023-04-01T09:43:53;93149.38;;;17.96;36.84
11415;BME280;5763;42.714;23.244;2023-04-01T09:46:29;93146.88;;;18.18;37.13
11415;BME280;5763;42.714;23.244;2023-04-01T09:49:18;93149.81;;;18.46;33.21
11415;BME280;5763;42.714;23.244;2023-04-01T09:52:01;93137.06;;;18.84;33.32
11415;BME280;5763;42.714;23.244;2023-04-01T09:54:40;93132.59;;;19.02;34.33
11415;BME280;5763;42.714;23.244;2023-04-01T09:57:26;93133.97;;;19.29;33.62
11415;BME280;5763;42.714;23.244;2023-04-01T10:00:10;93091.44;;;19.62;31.48
11415;BME280;5763;42.714;23.244;2023-04-01T10:03:20;93133.88;;;20.41;30.26
11415;BME280;5763;42.714;23.244;2023-04-01T10:09:46;93118.19;;;20.73;30.00
11415;BME280;5763;42.714;23.244;2023-04-01T10:12:41;93118.91;;;20.59;30.37
11415;BME280;5763;42.714;23.244;2023-04-01T10:15:44;93111.19;;;20.14;30.55
11415;BME280;5763;42.714;23.244;2023-04-01T10:21:44;93057.94;;;19.52;30.63
11415;BME280;5763;42.714;23.244;2023-04-01T10:33:45;93072.41;;;19.10;31.96
11415;BME280;5763;42.714;23.244;2023-04-01T10:36:46;93065.75;;;18.85;32.23
11415;BME280;5763;42.714;23.244;2023-04-01T10:39:33;93066.88;;;18.89;32.45
11415;BME280;5763;42.714;23.244;2023-04-01T10:42:31;93048.66;;;18.73;31.99
11415;BME280;5763;42.714;23.244;2023-04-01T10:48:14;93040.56;;;18.75;32.24
11415;BME280;5763;42.714;23.244;2023-04-01T10:51:24;93031.63;;;18.69;32.28
11415;BME280;5763;42.714;23.244;2023-04-01T10:54:33;93017.97;;;18.71;32.05
11415;BME280;5763;42.714;23.244;2023-04-01T10:57:28;93047.34;;;18.95;32.13
11415;BME280;5763;42.714;23.244;2023-04-01T11:00:32;93054.78;;;19.00;31.73
11415;BME280;5763;42.714;23.244;2023-04-01T11:03:27;93016.16;;;18.74;31.45
11415;BME280;5763;42.714;23.244;2023-04-01T11:09:43;93047.53;;;18.97;32.95
11415;BME280;5763;42.714;23.244;2023-04-01T11:15:45;93047.25;;;18.39;34.79
11415;BME280;5763;42.714;23.244;2023-04-01T11:21:46;93078.72;;;18.15;33.89
11415;BME280;5763;42.714;23.244;2023-04-01T11:27:19;93097.41;;;18.02;35.77
11415;BME280;5763;42.714;23.244;2023-04-01T11:30:06;93122.56;;;17.77;37.82
11415;BME280;5763;42.714;23.244;2023-04-01T11:32:56;93161.69;;;17.29;40.42
11415;BME280;5763;42.714;23.244;2023-04-01T11:36:03;93158.94;;;16.66;46.40
11415;BME280;5763;42.714;23.244;2023-04-01T11:38:53;93214.59;;;16.20;53.66
11415;BME280;5763;42.714;23.244;2023-04-01T11:41:27;93258.00;;;15.18;59.14
11415;BME280;5763;42.714;23.244;2023-04-01T11:44:14;93253.84;;;14.71;63.96
11415;BME280;5763;42.714;23.244;2023-04-01T11:47:02;93265.84;;;14.33;62.76
11415;BME280;5763;42.714;23.244;2023-04-01T11:49:47;93271.88;;;14.15;65.29
11415;BME280;5763;42.714;23.244;2023-04-01T11:52:56;93285.50;;;13.91;66.42
11415;BME280;5763;42.714;23.244;2023-04-01T11:55:40;93288.50;;;13.88;67.70
11415;BME280;5763;42.714;23.244;2023-04-01T11:58:22;93297.50;;;13.88;69.64
11415;BME280;5763;42.714;23.244;2023-04-01T12:01:31;93252.34;;;13.62;69.95
11415;BME280;5763;42.714;23.244;2023-04-01T12:04:17;93302.50;;;13.95;71.08
11415;BME280;5763;42.714;23.244;2023-04-01T12:07:00;93292.97;;;13.96;70.02
11415;BME280;5763;42.714;23.244;2023-04-01T12:09:36;93277.44;;;14.04;70.86
11415;BME280;5763;42.714;23.244;2023-04-01T12:12:16;93282.38;;;14.28;70.95
11415;BME280;5763;42.714;23.244;2023-04-01T12:14:52;93271.56;;;14.41;71.30
11415;BME280;5763;42.714;23.244;2023-04-01T12:17:29;93278.94;;;14.62;72.09
11415;BME280;5763;42.714;23.244;2023-04-01T12:20:09;93279.09;;;14.75;72.45
11415;BME280;5763;42.714;23.244;2023-04-01T12:22:49;93281.81;;;14.81;73.54
11415;BME280;5763;42.714;23.244;2023-04-01T12:25:28;93281.56;;;14.84;73.50
11415;BME280;5763;42.714;23.244;2023-04-01T12:28:09;93281.16;;;14.69;75.36
11415;BME280;5763;42.714;23.244;2023-04-01T12:30:50;93304.91;;;14.72;75.48
11415;BME280;5763;42.714;23.244;2023-04-01T12:33:54;93308.81;;;14.47;75.89
11415;BME280;5763;42.714;23.244;2023-04-01T12:36:35;93289.59;;;14.36;76.54
11415;BME280;5763;42.714;23.244;2023-04-01T12:39:20;93283.63;;;14.27;77.25
11415;BME280;5763;42.714;23.244;2023-04-01T12:41:53;93280.38;;;14.28;76.76
11415;BME280;5763;42.714;23.244;2023-04-01T12:44:32;93291.16;;;14.21;76.45
11415;BME280;5763;42.714;23.244;2023-04-01T12:47:49;93266.38;;;14.15;77.04
11415;BME280;5763;42.714;23.244;2023-04-01T12:50:31;93260.69;;;14.08;78.70
11415;BME280;5763;42.714;23.244;2023-04-01T12:53:15;93226.50;;;13.87;76.52
11415;BME280;5763;42.714;23.244;2023-04-01T12:55:48;93221.97;;;14.00;74.28
11415;BME280;5763;42.714;23.244;2023-04-01T13:01:52;93240.69;;;14.02;72.15
11415;BME280;5763;42.714;23.244;2023-04-01T13:05:01;93242.41;;;14.10;71.66
11415;BME280;5763;42.714;23.244;2023-04-01T13:07:52;93249.88;;;14.15;69.89
11415;BME280;5763;42.714;23.244;2023-04-01T13:10:38;93251.63;;;14.24;66.33
11415;BME280;5763;42.714;23.244;2023-04-01T13:13:28;93236.63;;;14.25;67.71
11415;BME280;5763;42.714;23.244;2023-04-01T13:15:58;93220.53;;;14.40;71.36
11415;BME280;5763;42.714;23.244;2023-04-01T13:18:38;93218.72;;;14.83;72.07
11415;BME280;5763;42.714;23.244;2023-04-01T13:21:15;93219.88;;;15.22;70.11
11415;BME280;5763;42.714;23.244;2023-04-01T13:23:57;93202.66;;;15.16;69.90
11415;BME280;5763;42.714;23.244;2023-04-01T13:26:30;93204.31;;;15.25;70.61
11415;BME280;5763;42.714;23.244;2023-04-01T13:29:07;93203.94;;;15.63;69.97
11415;BME280;5763;42.714;23.244;2023-04-01T13:31:50;93194.56;;;16.14;65.68
11415;BME280;5763;42.714;23.244;2023-04-01T13:34:33;93199.97;;;16.94;62.13
11415;BME280;5763;42.714;23.244;2023-04-01T13:37:13;93177.56;;;17.81;60.13
11415;BME280;5763;42.714;23.244;2023-04-01T13:40:02;93169.00;;;18.31;57.79
11415;BME280;5763;42.714;23.244;2023-04-01T13:42:40;93165.34;;;18.83;56.74
11415;BME280;5763;42.714;23.244;2023-04-01T13:45:14;93166.59;;;18.82;53.03
11415;BME280;5763;42.714;23.244;2023-04-01T13:48:02;93159.31;;;19.33;51.75
11415;BME280;5763;42.714;23.244;2023-04-01T13:51:01;93144.22;;;19.21;51.61
11415;BME280;5763;42.714;23.244;2023-04-01T13:53:46;93135.81;;;19.26;52.24
11415;BME280;5763;42.714;23.244;2023-04-01T13:56:33;93120.16;;;19.64;49.41
11415;BME280;5763;42.714;23.244;2023-04-01T14:02:13;93123.41;;;20.69;43.79
11415;BME280;5763;42.714;23.244;2023-04-01T14:05:07;93115.22;;;20.64;42.42
11415;BME280;5763;42.714;23.244;2023-04-01T14:07:49;93129.50;;;20.68;41.25
11415;BME280;5763;42.714;23.244;2023-04-01T14:10:30;93105.44;;;20.85;40.97
11415;BME280;5763;42.714;23.244;2023-04-01T14:13:05;93112.31;;;21.22;40.73
11415;BME280;5763;42.714;23.244;2023-04-01T14:18:45;93114.66;;;20.65;38.02
11415;BME280;5763;42.714;23.244;2023-04-01T14:21:27;93100.84;;;19.87;39.09
11415;BME280;5763;42.714;23.244;2023-04-01T14:24:35;93063.91;;;19.08;40.63
11415;BME280;5763;42.714;23.244;2023-04-01T14:27:14;93106.44;;;19.31;41.61
11415;BME280;5763;42.714;23.244;2023-04-01T14:29:57;93091.56;;;19.84;40.34
11415;BME280;5763;42.714;23.244;2023-04-01T14:32:34;93078.38;;;20.13;39.96
11415;BME280;5763;42.714;23.244;2023-04-01T14:35:19;93080.72;;;20.52;39.47
11415;BME280;5763;42.714;23.244;2023-04-01T14:38:06;93079.66;;;20.85;38.56
11415;BME280;5763;42.714;23.244;2023-04-01T14:40:48;93078.00;;;21.27;37.60
11415;BME280;5763;42.714;23.244;2023-04-01T14:43:45;93086.94;;;21.33;36.87
11415;BME280;5763;42.714;23.244;2023-04-01T14:46:48;93094.16;;;21.21;36.86